createdAt,value
2019-06-10T00:00:44.339Z,1017.67
2019-06-10T00:01:44.226Z,1017.71
2019-06-10T00:02:44.205Z,1017.72
2019-06-10T00:03:44.183Z,1017.69
2019-06-10T00:04:44.161Z,1017.69
2019-06-10T00:05:44.138Z,1017.72
2019-06-10T00:06:44.115Z,1017.72
2019-06-10T00:07:44.094Z,1017.71
2019-06-10T00:08:44.072Z,1017.68
2019-06-10T00:09:44.052Z,1017.67
2019-06-10T00:10:44.028Z,1017.65
2019-06-10T00:11:44.005Z,1017.61
2019-06-10T00:12:43.986Z,1017.60
2019-06-10T00:13:43.962Z,1017.60
2019-06-10T00:14:43.940Z,1017.56
2019-06-10T00:15:43.917Z,1017.57
2019-06-10T00:16:43.898Z,1017.53
2019-06-10T00:17:54.846Z,1017.55
2019-06-10T00:18:45.699Z,1017.55
2019-06-10T00:19:43.831Z,1017.53
2019-06-10T00:20:43.808Z,1017.52
2019-06-10T00:21:43.785Z,1017.51
2019-06-10T00:22:43.763Z,1017.47
2019-06-10T00:23:43.741Z,1017.50
2019-06-10T00:24:43.721Z,1017.44
2019-06-10T00:25:43.697Z,1017.44
2019-06-10T00:26:43.674Z,1017.39
2019-06-10T00:27:43.654Z,1017.38
2019-06-10T00:28:43.632Z,1017.40
2019-06-10T00:29:43.607Z,1017.36
2019-06-10T00:30:43.586Z,1017.36
2019-06-10T00:31:43.565Z,1017.36
2019-06-10T00:32:43.541Z,1017.31
2019-06-10T00:33:43.518Z,1017.30
2019-06-10T00:34:43.497Z,1017.29
2019-06-10T00:35:43.475Z,1017.28
2019-06-10T00:36:43.457Z,1017.30
2019-06-10T00:37:43.430Z,1017.29
2019-06-10T00:38:43.409Z,1017.29
2019-06-10T00:39:43.397Z,1017.25
2019-06-10T00:40:43.374Z,1017.25
2019-06-10T00:41:43.344Z,1017.26
2019-06-10T00:42:43.320Z,1017.22
2019-06-10T00:43:43.299Z,1017.23
2019-06-10T00:44:43.277Z,1017.18
2019-06-10T00:45:43.255Z,1017.19
2019-06-10T00:46:43.232Z,1017.13
2019-06-10T00:47:43.215Z,1017.09
2019-06-10T00:48:43.188Z,1017.08
2019-06-10T00:49:43.170Z,1017.08
2019-06-10T00:50:43.145Z,1017.09
2019-06-10T00:51:43.121Z,1017.05
2019-06-10T00:52:45.279Z,1016.99
2019-06-10T00:53:43.076Z,1016.97
2019-06-10T00:54:43.055Z,1016.91
2019-06-10T00:55:43.033Z,1016.96
2019-06-10T00:56:43.011Z,1016.97
2019-06-10T00:57:42.987Z,1017.01
2019-06-10T00:58:42.969Z,1016.95
2019-06-10T00:59:42.947Z,1016.95
2019-06-10T01:00:42.923Z,1016.98
2019-06-10T01:01:42.900Z,1016.91
2019-06-10T01:02:42.882Z,1016.94
2019-06-10T01:03:42.857Z,1016.90
2019-06-10T01:04:42.833Z,1016.88
2019-06-10T01:05:42.819Z,1016.93
2019-06-10T01:06:42.798Z,1016.89
2019-06-10T01:07:42.766Z,1016.85
2019-06-10T01:08:42.744Z,1016.86
2019-06-10T01:09:42.723Z,1016.81
2019-06-10T01:10:44.247Z,1016.82
2019-06-10T01:11:42.679Z,1016.82
2019-06-10T01:12:42.654Z,1016.86
2019-06-10T01:13:42.632Z,1016.82
2019-06-10T01:14:42.610Z,1016.79
2019-06-10T01:15:42.590Z,1016.76
2019-06-10T01:16:42.566Z,1016.73
2019-06-10T01:17:42.541Z,1016.72
2019-06-10T01:18:42.521Z,1016.67
2019-06-10T01:19:42.498Z,1016.65
2019-06-10T01:20:42.491Z,1016.65
2019-06-10T01:21:42.453Z,1016.57
2019-06-10T01:22:42.431Z,1016.58
2019-06-10T01:23:42.415Z,1016.54
2019-06-10T01:24:42.386Z,1016.53
2019-06-10T01:25:42.753Z,1016.58
2019-06-10T01:26:42.342Z,1016.53
2019-06-10T01:27:42.318Z,1016.54
2019-06-10T01:28:42.296Z,1016.55
2019-06-10T01:29:42.273Z,1016.57
2019-06-10T01:30:42.252Z,1016.59
2019-06-10T01:31:42.227Z,1016.56
2019-06-10T01:32:42.208Z,1016.53
2019-06-10T01:33:42.182Z,1016.46
2019-06-10T01:34:42.160Z,1016.44
2019-06-10T01:35:42.139Z,1016.48
2019-06-10T01:36:42.115Z,1016.43
2019-06-10T01:37:42.091Z,1016.45
2019-06-10T01:38:42.074Z,1016.44
2019-06-10T01:39:42.057Z,1016.43
2019-06-10T01:40:42.457Z,1016.44
2019-06-10T01:41:42.003Z,1016.45
2019-06-10T01:42:41.980Z,1016.40
2019-06-10T01:43:41.957Z,1016.42
2019-06-10T01:44:41.942Z,1016.33
2019-06-10T01:45:42.277Z,1016.37
2019-06-10T01:46:41.890Z,1016.35
2019-06-10T01:47:41.870Z,1016.27
2019-06-10T01:48:47.948Z,1016.24
2019-06-10T01:49:41.823Z,1016.32
2019-06-10T01:50:41.801Z,1016.30
2019-06-10T01:51:41.778Z,1016.26
2019-06-10T01:52:41.756Z,1016.19
2019-06-10T01:53:41.732Z,1016.25
2019-06-10T01:54:42.134Z,1016.16
2019-06-10T01:55:42.103Z,1016.20
2019-06-10T01:56:41.666Z,1016.15
2019-06-10T01:57:41.643Z,1016.16
2019-06-10T01:58:41.641Z,1016.15
2019-06-10T01:59:41.597Z,1016.13
2019-06-10T02:00:41.888Z,1016.16
2019-06-10T02:01:41.552Z,1016.19
2019-06-10T02:02:44.760Z,1016.17
2019-06-10T02:03:41.642Z,1016.23
2019-06-10T02:04:41.486Z,1016.18
2019-06-10T02:05:42.054Z,1016.18
2019-06-10T02:06:41.439Z,1016.15
2019-06-10T02:07:41.417Z,1016.14
2019-06-10T02:08:41.874Z,1016.12
2019-06-10T02:09:41.373Z,1016.09
2019-06-10T02:10:41.632Z,1016.07
2019-06-10T02:11:41.589Z,1016.06
2019-06-10T02:12:41.615Z,1016.04
2019-06-10T02:13:41.282Z,1016.03
2019-06-10T02:14:41.671Z,1016.04
2019-06-10T02:15:41.242Z,1015.98
2019-06-10T02:16:41.561Z,1016.00
2019-06-10T02:17:41.727Z,1015.96
2019-06-10T02:18:54.409Z,1015.94
2019-06-10T02:19:41.513Z,1015.87
2019-06-10T02:20:41.330Z,1015.87
2019-06-10T02:21:41.734Z,1015.82
2019-06-10T02:22:41.278Z,1015.77
2019-06-10T02:23:41.235Z,1015.73
2019-06-10T02:24:41.655Z,1015.64
2019-06-10T02:25:41.335Z,1015.64
2019-06-10T02:26:41.179Z,1015.62
2019-06-10T02:27:41.523Z,1015.65
2019-06-10T02:28:40.946Z,1015.61
2019-06-10T02:29:41.270Z,1015.59
2019-06-10T02:30:50.323Z,1015.56
2019-06-10T02:31:43.309Z,1015.51
2019-06-10T02:32:42.839Z,1015.49
2019-06-10T02:33:42.026Z,1015.42
2019-06-10T02:34:53.621Z,1015.43
2019-06-10T02:35:48.404Z,1015.48
2019-06-10T02:36:44.229Z,1015.36
2019-06-10T02:37:44.228Z,1015.38
2019-06-10T02:38:44.218Z,1015.30
2019-06-10T02:39:43.773Z,1015.32
2019-06-10T02:40:43.334Z,1015.37
2019-06-10T02:41:44.231Z,1015.31
2019-06-10T02:42:43.556Z,1015.32
2019-06-10T02:43:43.814Z,1015.32
2019-06-10T02:44:44.175Z,1015.35
2019-06-10T02:45:44.204Z,1015.32
2019-06-10T02:46:43.971Z,1015.30
2019-06-10T02:47:44.024Z,1015.31
2019-06-10T02:48:43.358Z,1015.35
2019-06-10T02:49:55.837Z,1015.34
2019-06-10T02:50:43.856Z,1015.32
2019-06-10T02:51:43.457Z,1015.32
2019-06-10T02:52:44.073Z,1015.31
2019-06-10T02:53:43.098Z,1015.28
2019-06-10T02:54:43.703Z,1015.26
2019-06-10T02:55:43.223Z,1015.25
2019-06-10T02:56:43.902Z,1015.27
2019-06-10T02:57:40.812Z,1015.18
2019-06-10T02:58:44.509Z,1015.16
2019-06-10T02:59:43.419Z,1015.14
2019-06-10T03:00:47.484Z,1015.16
2019-06-10T03:01:43.579Z,1015.12
2019-06-10T03:02:44.525Z,1015.10
2019-06-10T03:03:45.912Z,1015.07
2019-06-10T03:04:43.132Z,1015.06
2019-06-10T03:05:41.304Z,1015.01
2019-06-10T03:06:44.031Z,1014.96
2019-06-10T03:07:40.065Z,1014.96
2019-06-10T03:08:43.389Z,1014.98
2019-06-10T03:09:42.588Z,1014.93
2019-06-10T03:10:43.437Z,1014.94
2019-06-10T03:11:40.216Z,1014.96
2019-06-10T03:12:42.278Z,1014.95
2019-06-10T03:13:39.954Z,1014.99
2019-06-10T03:14:42.154Z,1014.92
2019-06-10T03:15:39.885Z,1014.97
2019-06-10T03:16:42.192Z,1014.97
2019-06-10T03:17:39.840Z,1014.96
2019-06-10T03:18:39.818Z,1014.99
2019-06-10T03:19:47.878Z,1014.99
2019-06-10T03:20:39.773Z,1014.97
2019-06-10T03:21:39.749Z,1014.96
2019-06-10T03:22:42.141Z,1014.91
2019-06-10T03:23:39.705Z,1014.95
2019-06-10T03:24:42.045Z,1014.88
2019-06-10T03:25:39.660Z,1014.85
2019-06-10T03:26:39.639Z,1014.86
2019-06-10T03:27:42.256Z,1014.78
2019-06-10T03:28:39.593Z,1014.80
2019-06-10T03:29:42.034Z,1014.78
2019-06-10T03:30:52.338Z,1014.76
2019-06-10T03:31:43.154Z,1014.71
2019-06-10T03:32:42.657Z,1014.73
2019-06-10T03:33:42.035Z,1014.75
2019-06-10T03:34:45.868Z,1014.75
2019-06-10T03:35:39.438Z,1014.72
2019-06-10T03:36:39.413Z,1014.76
2019-06-10T03:37:39.389Z,1014.78
2019-06-10T03:38:39.370Z,1014.78
2019-06-10T03:39:39.346Z,1014.78
2019-06-10T03:40:39.324Z,1014.77
2019-06-10T03:41:39.300Z,1014.77
2019-06-10T03:42:39.278Z,1014.77
2019-06-10T03:43:39.256Z,1014.77
2019-06-10T03:44:39.233Z,1014.79
2019-06-10T03:45:39.213Z,1014.79
2019-06-10T03:46:39.188Z,1014.79
2019-06-10T03:47:39.166Z,1014.78
2019-06-10T03:48:39.144Z,1014.78
2019-06-10T03:49:49.835Z,1014.80
2019-06-10T03:50:39.100Z,1014.81
2019-06-10T03:51:39.080Z,1014.77
2019-06-10T03:52:39.053Z,1014.76
2019-06-10T03:53:39.030Z,1014.77
2019-06-10T03:54:39.010Z,1014.72
2019-06-10T03:55:38.988Z,1014.74
2019-06-10T03:56:38.964Z,1014.73
2019-06-10T03:57:38.942Z,1014.75
2019-06-10T03:58:38.920Z,1014.78
2019-06-10T03:59:38.897Z,1014.79
2019-06-10T04:00:38.877Z,1014.74
2019-06-10T04:01:38.851Z,1014.73
2019-06-10T04:02:38.830Z,1014.70
2019-06-10T04:03:38.808Z,1014.67
2019-06-10T04:04:38.786Z,1014.70
2019-06-10T04:05:38.767Z,1014.70
2019-06-10T04:06:38.752Z,1014.70
2019-06-10T04:07:38.720Z,1014.67
2019-06-10T04:08:38.695Z,1014.64
2019-06-10T04:09:38.672Z,1014.64
2019-06-10T04:10:38.652Z,1014.64
2019-06-10T04:11:38.735Z,1014.64
2019-06-10T04:12:38.607Z,1014.62
2019-06-10T04:13:38.585Z,1014.61
2019-06-10T04:14:38.563Z,1014.61
2019-06-10T04:15:38.539Z,1014.60
2019-06-10T04:16:38.517Z,1014.63
2019-06-10T04:17:38.498Z,1014.63
2019-06-10T04:18:38.471Z,1014.63
2019-06-10T04:19:38.448Z,1014.65
2019-06-10T04:20:38.428Z,1014.63
2019-06-10T04:21:38.416Z,1014.66
2019-06-10T04:22:38.385Z,1014.64
2019-06-10T04:23:38.359Z,1014.57
2019-06-10T04:24:38.340Z,1014.58
2019-06-10T04:25:38.314Z,1014.50
2019-06-10T04:26:38.292Z,1014.47
2019-06-10T04:27:38.271Z,1014.42
2019-06-10T04:28:38.250Z,1014.38
2019-06-10T04:29:38.226Z,1014.40
2019-06-10T04:30:38.215Z,1014.40
2019-06-10T04:31:38.206Z,1014.41
2019-06-10T04:32:38.158Z,1014.44
2019-06-10T04:33:38.136Z,1014.49
2019-06-10T04:34:38.113Z,1014.47
2019-06-10T04:35:38.091Z,1014.47
2019-06-10T04:36:38.070Z,1014.43
2019-06-10T04:37:38.046Z,1014.45
2019-06-10T04:38:38.022Z,1014.41
2019-06-10T04:39:37.999Z,1014.41
2019-06-10T04:40:37.980Z,1014.36
2019-06-10T04:41:38.077Z,1014.41
2019-06-10T04:42:37.934Z,1014.34
2019-06-10T04:43:37.912Z,1014.34
2019-06-10T04:44:37.890Z,1014.30
2019-06-10T04:45:37.867Z,1014.29
2019-06-10T04:46:37.845Z,1014.29
2019-06-10T04:47:37.822Z,1014.28
2019-06-10T04:48:37.800Z,1014.29
2019-06-10T04:49:37.776Z,1014.29
2019-06-10T04:50:45.502Z,1014.30
2019-06-10T04:51:37.785Z,1014.27
2019-06-10T04:52:37.712Z,1014.26
2019-06-10T04:53:40.305Z,1014.27
2019-06-10T04:54:37.665Z,1014.28
2019-06-10T04:55:37.644Z,1014.29
2019-06-10T04:56:37.622Z,1014.28
2019-06-10T04:57:37.607Z,1014.27
2019-06-10T04:58:37.577Z,1014.25
2019-06-10T04:59:37.555Z,1014.29
2019-06-10T05:00:37.532Z,1014.27
2019-06-10T05:01:37.551Z,1014.25
2019-06-10T05:02:37.487Z,1014.23
2019-06-10T05:03:37.465Z,1014.24
2019-06-10T05:04:37.446Z,1014.24
2019-06-10T05:05:37.421Z,1014.24
2019-06-10T05:06:37.400Z,1014.25
2019-06-10T05:07:37.377Z,1014.20
2019-06-10T05:08:37.384Z,1014.25
2019-06-10T05:09:37.334Z,1014.29
2019-06-10T05:10:37.311Z,1014.24
2019-06-10T05:11:37.307Z,1014.25
2019-06-10T05:12:37.267Z,1014.23
2019-06-10T05:13:37.245Z,1014.20
2019-06-10T05:14:37.223Z,1014.20
2019-06-10T05:15:37.201Z,1014.23
2019-06-10T05:16:37.181Z,1014.25
2019-06-10T05:17:37.157Z,1014.22
2019-06-10T05:18:37.136Z,1014.26
2019-06-10T05:19:37.114Z,1014.24
2019-06-10T05:20:54.217Z,1014.29
2019-06-10T05:21:37.147Z,1014.24
2019-06-10T05:22:37.047Z,1014.29
2019-06-10T05:23:37.027Z,1014.29
2019-06-10T05:24:37.005Z,1014.27
2019-06-10T05:25:36.982Z,1014.29
2019-06-10T05:26:36.960Z,1014.22
2019-06-10T05:27:36.937Z,1014.25
2019-06-10T05:28:36.917Z,1014.22
2019-06-10T05:29:36.895Z,1014.23
2019-06-10T05:30:36.873Z,1014.26
2019-06-10T05:31:36.852Z,1014.27
2019-06-10T05:32:36.830Z,1014.25
2019-06-10T05:33:36.807Z,1014.27
2019-06-10T05:34:36.788Z,1014.28
2019-06-10T05:35:36.764Z,1014.26
2019-06-10T05:36:36.743Z,1014.23
2019-06-10T05:37:36.721Z,1014.24
2019-06-10T05:38:36.699Z,1014.23
2019-06-10T05:39:36.679Z,1014.23
2019-06-10T05:40:36.658Z,1014.24
2019-06-10T05:41:36.636Z,1014.22
2019-06-10T05:42:36.624Z,1014.19
2019-06-10T05:43:36.592Z,1014.19
2019-06-10T05:44:36.572Z,1014.13
2019-06-10T05:45:36.549Z,1014.19
2019-06-10T05:46:36.528Z,1014.16
2019-06-10T05:47:36.508Z,1014.15
2019-06-10T05:48:36.486Z,1014.14
2019-06-10T05:49:36.469Z,1014.20
2019-06-10T05:50:36.445Z,1014.15
2019-06-10T05:51:36.427Z,1014.24
2019-06-10T05:52:36.412Z,1014.25
2019-06-10T05:53:36.385Z,1014.26
2019-06-10T05:54:36.364Z,1014.30
2019-06-10T05:55:36.347Z,1014.32
2019-06-10T05:56:36.333Z,1014.30
2019-06-10T05:57:36.308Z,1014.33
2019-06-10T05:58:36.288Z,1014.29
2019-06-10T05:59:36.271Z,1014.27
2019-06-10T06:00:36.252Z,1014.24
2019-06-10T06:01:38.260Z,1014.24
2019-06-10T06:02:36.215Z,1014.20
2019-06-10T06:03:37.069Z,1014.19
2019-06-10T06:04:36.216Z,1014.18
2019-06-10T06:05:37.979Z,1014.15
2019-06-10T06:06:37.412Z,1014.11
2019-06-10T06:07:36.121Z,1014.09
2019-06-10T06:08:36.102Z,1014.10
2019-06-10T06:09:36.085Z,1014.06
2019-06-10T06:10:36.115Z,1014.12
2019-06-10T06:11:36.045Z,1014.09
2019-06-10T06:12:36.027Z,1014.15
2019-06-10T06:13:36.152Z,1014.12
2019-06-10T06:14:36.203Z,1014.10
2019-06-10T06:15:35.971Z,1014.09
2019-06-10T06:16:36.294Z,1014.04
2019-06-10T06:17:35.932Z,1014.02
2019-06-10T06:18:36.502Z,1013.97
2019-06-10T06:19:38.408Z,1013.92
2019-06-10T06:20:36.035Z,1013.89
2019-06-10T06:21:41.869Z,1013.93
2019-06-10T06:22:35.832Z,1013.91
2019-06-10T06:23:37.088Z,1013.94
2019-06-10T06:24:35.822Z,1013.94
2019-06-10T06:25:39.807Z,1013.99
2019-06-10T06:26:38.062Z,1013.98
2019-06-10T06:27:37.060Z,1013.97
2019-06-10T06:28:36.182Z,1013.95
2019-06-10T06:29:37.051Z,1013.91
2019-06-10T06:30:36.436Z,1013.92
2019-06-10T06:31:36.486Z,1013.93
2019-06-10T06:32:36.951Z,1013.88
2019-06-10T06:33:38.033Z,1013.87
2019-06-10T06:34:38.342Z,1013.91
2019-06-10T06:35:42.730Z,1013.86
2019-06-10T06:36:38.012Z,1013.91
2019-06-10T06:37:37.724Z,1013.91
2019-06-10T06:38:37.193Z,1013.94
2019-06-10T06:39:37.064Z,1013.92
2019-06-10T06:40:37.320Z,1013.92
2019-06-10T06:41:37.190Z,1013.85
2019-06-10T06:42:36.775Z,1013.83
2019-06-10T06:43:38.964Z,1013.81
2019-06-10T06:44:37.655Z,1013.84
2019-06-10T06:45:37.290Z,1013.80
2019-06-10T06:46:37.859Z,1013.82
2019-06-10T06:47:37.119Z,1013.80
2019-06-10T06:48:38.346Z,1013.84
2019-06-10T06:49:36.817Z,1013.87
2019-06-10T06:50:36.178Z,1013.85
2019-06-10T06:51:47.708Z,1013.85
2019-06-10T06:53:04.960Z,1013.80
2019-06-10T06:53:45.468Z,1013.81
2019-06-10T06:54:36.238Z,1013.80
2019-06-10T06:55:36.542Z,1013.79
2019-06-10T06:56:37.375Z,1013.72
2019-06-10T06:57:36.774Z,1013.73
2019-06-10T06:58:36.913Z,1013.70
2019-06-10T06:59:36.925Z,1013.69
2019-06-10T07:00:51.004Z,1013.65
2019-06-10T07:01:37.628Z,1013.60
2019-06-10T07:02:37.210Z,1013.61
2019-06-10T07:03:38.104Z,1013.63
2019-06-10T07:04:35.873Z,1013.61
2019-06-10T07:05:35.979Z,1013.61
2019-06-10T07:06:36.031Z,1013.59
2019-06-10T07:07:36.019Z,1013.64
2019-06-10T07:08:37.542Z,1013.63
2019-06-10T07:09:36.178Z,1013.59
2019-06-10T07:10:36.128Z,1013.59
2019-06-10T07:11:37.393Z,1013.54
2019-06-10T07:12:36.451Z,1013.54
2019-06-10T07:13:37.118Z,1013.54
2019-06-10T07:14:37.303Z,1013.53
2019-06-10T07:15:37.722Z,1013.50
2019-06-10T07:16:38.651Z,1013.51
2019-06-10T07:17:37.394Z,1013.49
2019-06-10T07:18:41.155Z,1013.49
2019-06-10T07:19:37.952Z,1013.42
2019-06-10T07:20:37.605Z,1013.42
2019-06-10T07:21:51.465Z,1013.40
2019-06-10T07:22:36.888Z,1013.37
2019-06-10T07:23:38.877Z,1013.34
2019-06-10T07:24:37.900Z,1013.29
2019-06-10T07:25:37.339Z,1013.27
2019-06-10T07:26:40.535Z,1013.27
2019-06-10T07:27:37.567Z,1013.30
2019-06-10T07:28:37.452Z,1013.24
2019-06-10T07:29:37.415Z,1013.24
2019-06-10T07:30:37.653Z,1013.25
2019-06-10T07:31:36.418Z,1013.30
2019-06-10T07:32:37.344Z,1013.31
2019-06-10T07:33:37.373Z,1013.39
2019-06-10T07:34:36.724Z,1013.43
2019-06-10T07:35:35.737Z,1013.47
2019-06-10T07:36:35.624Z,1013.43
2019-06-10T07:37:34.999Z,1013.43
2019-06-10T07:38:37.204Z,1013.46
2019-06-10T07:39:36.468Z,1013.48
2019-06-10T07:40:35.916Z,1013.42
2019-06-10T07:41:35.631Z,1013.44
2019-06-10T07:42:34.911Z,1013.39
2019-06-10T07:43:38.267Z,1013.39
2019-06-10T07:44:34.908Z,1013.45
2019-06-10T07:45:37.761Z,1013.46
2019-06-10T07:46:36.044Z,1013.44
2019-06-10T07:47:35.321Z,1013.46
2019-06-10T07:48:36.508Z,1013.47
2019-06-10T07:49:35.378Z,1013.49
2019-06-10T07:50:34.994Z,1013.44
2019-06-10T07:51:35.788Z,1013.42
2019-06-10T07:52:35.603Z,1013.42
2019-06-10T07:53:36.325Z,1013.40
2019-06-10T07:54:34.808Z,1013.36
2019-06-10T07:55:35.012Z,1013.39
2019-06-10T07:56:38.875Z,1013.39
2019-06-10T07:57:34.738Z,1013.35
2019-06-10T07:58:36.493Z,1013.37
2019-06-10T07:59:35.323Z,1013.37
2019-06-10T08:00:36.233Z,1013.35
2019-06-10T08:01:35.103Z,1013.32
2019-06-10T08:02:34.416Z,1013.35
2019-06-10T08:03:35.261Z,1013.36
2019-06-10T08:04:35.239Z,1013.39
2019-06-10T08:05:34.291Z,1013.44
2019-06-10T08:06:36.106Z,1013.44
2019-06-10T08:07:35.184Z,1013.46
2019-06-10T08:08:34.820Z,1013.45
2019-06-10T08:09:35.697Z,1013.43
2019-06-10T08:10:35.006Z,1013.38
2019-06-10T08:11:35.142Z,1013.38
2019-06-10T08:12:35.061Z,1013.39
2019-06-10T08:13:35.175Z,1013.40
2019-06-10T08:14:33.879Z,1013.42
2019-06-10T08:15:33.866Z,1013.40
2019-06-10T08:16:33.847Z,1013.43
2019-06-10T08:17:33.831Z,1013.45
2019-06-10T08:18:44.721Z,1013.45
2019-06-10T08:19:37.789Z,1013.45
2019-06-10T08:20:34.925Z,1013.45
2019-06-10T08:21:33.769Z,1013.50
2019-06-10T08:22:39.908Z,1013.49
2019-06-10T08:23:33.745Z,1013.49
2019-06-10T08:24:33.723Z,1013.46
2019-06-10T08:25:33.704Z,1013.45
2019-06-10T08:26:33.689Z,1013.44
2019-06-10T08:27:33.738Z,1013.46
2019-06-10T08:28:33.656Z,1013.52
2019-06-10T08:29:33.650Z,1013.46
2019-06-10T08:30:33.628Z,1013.47
2019-06-10T08:31:33.608Z,1013.48
2019-06-10T08:32:33.766Z,1013.50
2019-06-10T08:33:33.574Z,1013.46
2019-06-10T08:34:33.558Z,1013.47
2019-06-10T08:35:41.993Z,1013.48
2019-06-10T08:36:33.553Z,1013.51
2019-06-10T08:37:33.508Z,1013.47
2019-06-10T08:38:33.493Z,1013.52
2019-06-10T08:39:33.688Z,1013.47
2019-06-10T08:40:33.461Z,1013.44
2019-06-10T08:41:33.442Z,1013.44
2019-06-10T08:42:33.428Z,1013.44
2019-06-10T08:43:33.412Z,1013.44
2019-06-10T08:44:33.395Z,1013.46
2019-06-10T08:45:33.489Z,1013.48
2019-06-10T08:46:33.363Z,1013.48
2019-06-10T08:47:33.347Z,1013.48
2019-06-10T08:48:33.332Z,1013.50
2019-06-10T08:49:33.316Z,1013.51
2019-06-10T08:50:33.828Z,1013.53
2019-06-10T08:51:33.285Z,1013.52
2019-06-10T08:52:48.918Z,1013.53
2019-06-10T08:53:33.324Z,1013.52
2019-06-10T08:54:33.238Z,1013.50
2019-06-10T08:55:33.547Z,1013.48
2019-06-10T08:56:33.206Z,1013.51
2019-06-10T08:57:33.560Z,1013.47
2019-06-10T08:58:33.297Z,1013.48
2019-06-10T08:59:33.250Z,1013.44
2019-06-10T09:00:33.786Z,1013.44
2019-06-10T09:01:33.601Z,1013.44
2019-06-10T09:02:33.502Z,1013.42
2019-06-10T09:03:33.102Z,1013.42
2019-06-10T09:04:33.231Z,1013.37
2019-06-10T09:05:33.073Z,1013.29
2019-06-10T09:06:33.159Z,1013.27
2019-06-10T09:07:33.045Z,1013.29
2019-06-10T09:08:33.031Z,1013.27
2019-06-10T09:09:33.634Z,1013.27
2019-06-10T09:10:33.931Z,1013.23
2019-06-10T09:11:33.023Z,1013.21
2019-06-10T09:12:36.548Z,1013.19
2019-06-10T09:13:33.807Z,1013.18
2019-06-10T09:14:32.948Z,1013.20
2019-06-10T09:15:32.935Z,1013.22
2019-06-10T09:16:33.050Z,1013.27
2019-06-10T09:17:33.891Z,1013.23
2019-06-10T09:18:33.879Z,1013.18
2019-06-10T09:19:33.332Z,1013.13
2019-06-10T09:20:33.270Z,1013.12
2019-06-10T09:21:33.195Z,1013.14
2019-06-10T09:22:32.850Z,1013.13
2019-06-10T09:23:33.265Z,1013.06
2019-06-10T09:24:32.929Z,1013.04
2019-06-10T09:25:33.529Z,1013.07
2019-06-10T09:26:33.838Z,1013.04
2019-06-10T09:27:32.878Z,1013.06
2019-06-10T09:28:33.088Z,1013.05
2019-06-10T09:29:32.999Z,1013.12
2019-06-10T09:30:33.382Z,1013.13
2019-06-10T09:31:33.146Z,1013.12
2019-06-10T09:32:32.715Z,1013.12
2019-06-10T09:33:33.211Z,1013.09
2019-06-10T09:34:33.197Z,1013.03
2019-06-10T09:35:32.676Z,1013.03
2019-06-10T09:36:32.680Z,1012.99
2019-06-10T09:37:32.650Z,1012.96
2019-06-10T09:38:33.525Z,1012.96
2019-06-10T09:39:32.938Z,1012.91
2019-06-10T09:40:33.338Z,1012.88
2019-06-10T09:41:41.064Z,1012.86
2019-06-10T09:42:33.295Z,1012.76
2019-06-10T09:43:33.251Z,1012.73
2019-06-10T09:44:33.372Z,1012.77
2019-06-10T09:45:33.292Z,1012.73
2019-06-10T09:46:33.252Z,1012.78
2019-06-10T09:47:34.709Z,1012.75
2019-06-10T09:48:33.523Z,1012.79
2019-06-10T09:49:33.569Z,1012.81
2019-06-10T09:50:33.424Z,1012.84
2019-06-10T09:51:32.613Z,1012.82
2019-06-10T09:52:32.977Z,1012.77
2019-06-10T09:53:41.293Z,1012.76
2019-06-10T09:54:33.578Z,1012.77
2019-06-10T09:55:32.924Z,1012.81
2019-06-10T09:56:33.108Z,1012.79
2019-06-10T09:57:32.398Z,1012.77
2019-06-10T09:58:33.105Z,1012.77
2019-06-10T09:59:32.436Z,1012.74
2019-06-10T10:00:33.151Z,1012.72
2019-06-10T10:01:32.749Z,1012.70
2019-06-10T10:02:33.166Z,1012.68
2019-06-10T10:03:33.051Z,1012.72
2019-06-10T10:04:32.838Z,1012.70
2019-06-10T10:05:33.794Z,1012.74
2019-06-10T10:06:32.809Z,1012.75
2019-06-10T10:07:32.513Z,1012.79
2019-06-10T10:08:32.705Z,1012.75
2019-06-10T10:09:36.677Z,1012.78
2019-06-10T10:10:32.795Z,1012.79
2019-06-10T10:11:32.225Z,1012.77
2019-06-10T10:12:32.821Z,1012.75
2019-06-10T10:13:35.356Z,1012.70
2019-06-10T10:14:33.457Z,1012.71
2019-06-10T10:15:34.528Z,1012.74
2019-06-10T10:16:33.975Z,1012.68
2019-06-10T10:17:33.411Z,1012.66
2019-06-10T10:18:33.454Z,1012.68
2019-06-10T10:19:32.097Z,1012.67
2019-06-10T10:20:34.085Z,1012.66
2019-06-10T10:21:32.069Z,1012.68
2019-06-10T10:22:33.616Z,1012.66
2019-06-10T10:23:49.600Z,1012.62
2019-06-10T10:24:34.074Z,1012.61
2019-06-10T10:25:32.829Z,1012.58
2019-06-10T10:26:31.999Z,1012.54
2019-06-10T10:27:32.427Z,1012.55
2019-06-10T10:28:33.439Z,1012.52
2019-06-10T10:29:32.833Z,1012.55
2019-06-10T10:30:33.189Z,1012.54
2019-06-10T10:31:32.502Z,1012.50
2019-06-10T10:32:33.410Z,1012.46
2019-06-10T10:33:33.366Z,1012.42
2019-06-10T10:34:33.317Z,1012.39
2019-06-10T10:35:32.639Z,1012.35
2019-06-10T10:36:33.525Z,1012.28
2019-06-10T10:37:32.754Z,1012.34
2019-06-10T10:38:34.541Z,1012.35
2019-06-10T10:39:32.713Z,1012.39
2019-06-10T10:40:32.567Z,1012.43
2019-06-10T10:41:32.333Z,1012.46
2019-06-10T10:42:42.721Z,1012.42
2019-06-10T10:43:34.061Z,1012.40
2019-06-10T10:44:32.005Z,1012.42
2019-06-10T10:45:31.735Z,1012.42
2019-06-10T10:46:32.624Z,1012.42
2019-06-10T10:47:33.586Z,1012.43
2019-06-10T10:48:33.593Z,1012.40
2019-06-10T10:49:32.639Z,1012.41
2019-06-10T10:50:34.136Z,1012.45
2019-06-10T10:51:32.692Z,1012.45
2019-06-10T10:52:33.075Z,1012.49
2019-06-10T10:53:32.818Z,1012.46
2019-06-10T10:54:35.994Z,1012.44
2019-06-10T10:55:33.376Z,1012.46
2019-06-10T10:56:33.468Z,1012.42
2019-06-10T10:57:33.044Z,1012.40
2019-06-10T10:58:33.041Z,1012.38
2019-06-10T10:59:33.254Z,1012.31
2019-06-10T11:00:36.601Z,1012.36
2019-06-10T11:01:33.295Z,1012.33
2019-06-10T11:02:32.207Z,1012.29
2019-06-10T11:03:33.635Z,1012.35
2019-06-10T11:04:32.849Z,1012.34
2019-06-10T11:05:33.301Z,1012.33
2019-06-10T11:06:32.311Z,1012.31
2019-06-10T11:07:33.936Z,1012.28
2019-06-10T11:08:33.334Z,1012.29
2019-06-10T11:09:33.033Z,1012.25
2019-06-10T11:10:33.018Z,1012.32
2019-06-10T11:11:33.253Z,1012.32
2019-06-10T11:12:33.179Z,1012.32
2019-06-10T11:13:33.314Z,1012.32
2019-06-10T11:14:33.337Z,1012.29
2019-06-10T11:15:33.804Z,1012.27
2019-06-10T11:16:33.029Z,1012.21
2019-06-10T11:17:33.687Z,1012.23
2019-06-10T11:18:33.561Z,1012.20
2019-06-10T11:19:32.840Z,1012.21
2019-06-10T11:20:33.526Z,1012.23
2019-06-10T11:21:33.043Z,1012.25
2019-06-10T11:22:32.820Z,1012.24
2019-06-10T11:23:34.229Z,1012.26
2019-06-10T11:24:37.751Z,1012.23
2019-06-10T11:25:33.201Z,1012.28
2019-06-10T11:26:32.834Z,1012.23
2019-06-10T11:27:33.150Z,1012.23
2019-06-10T11:28:32.125Z,1012.21
2019-06-10T11:29:32.865Z,1012.19
2019-06-10T11:30:32.417Z,1012.18
2019-06-10T11:31:32.852Z,1012.22
2019-06-10T11:32:32.784Z,1012.20
2019-06-10T11:33:32.902Z,1012.22
2019-06-10T11:34:33.269Z,1012.20
2019-06-10T11:35:31.058Z,1012.15
2019-06-10T11:36:31.044Z,1012.12
2019-06-10T11:37:31.029Z,1012.13
2019-06-10T11:38:32.909Z,1012.07
2019-06-10T11:39:33.020Z,1012.08
2019-06-10T11:40:33.887Z,1012.08
2019-06-10T11:41:32.493Z,1012.10
2019-06-10T11:42:33.385Z,1012.06
2019-06-10T11:43:33.100Z,1012.07
2019-06-10T11:44:33.195Z,1012.05
2019-06-10T11:45:32.869Z,1012.05
2019-06-10T11:46:32.566Z,1012.06
2019-06-10T11:47:32.901Z,1012.07
2019-06-10T11:48:32.830Z,1012.06
2019-06-10T11:49:30.863Z,1012.05
2019-06-10T11:50:33.264Z,1012.03
2019-06-10T11:51:30.836Z,1012.00
2019-06-10T11:52:33.481Z,1012.02
2019-06-10T11:53:31.202Z,1011.97
2019-06-10T11:54:33.996Z,1011.96
2019-06-10T11:55:32.759Z,1011.97
2019-06-10T11:56:33.504Z,1011.95
2019-06-10T11:57:32.953Z,1011.98
2019-06-10T11:58:33.083Z,1011.99
2019-06-10T11:59:32.763Z,1011.97
2019-06-10T12:00:33.051Z,1011.94
2019-06-10T12:01:30.925Z,1011.86
2019-06-10T12:02:32.847Z,1011.87
2019-06-10T12:03:30.675Z,1011.87
2019-06-10T12:04:30.663Z,1011.86
2019-06-10T12:05:32.638Z,1011.85